Time;durP1;ratioP1;P1;durP2;ratioP2;P2;SDS_P1;SDS_P2;PMS_P1;PMS_P2;Temp;Humidity;BMP_temperature;BMP_pressure;BME280_temperature;BME280_humidity;BME280_pressure;Samples;Min_cycle;Max_cycle;Signal;HPM_P1;HPM_P2
2023/09/12 00:00:57;;;;;;;7.50;2.50;;;;;;;13.48;57.05;101197.23;107404;1254;107704;-62
2023/09/12 00:03:35;;;;;;;7.30;2.70;;;;;;;13.46;56.96;101200.23;107465;1254;99222;-62
2023/09/12 00:06:04;;;;;;;7.60;2.10;;;;;;;13.46;57.10;101196.64;107453;1254;99713;-61
2023/09/12 00:08:32;;;;;;;5.20;2.40;;;;;;;13.44;57.20;101200.41;107422;1255;113117;-62
2023/09/12 00:11:06;;;;;;;10.10;2.40;;;;;;;13.44;57.29;101206.33;107438;1254;110412;-61
2023/09/12 00:13:34;;;;;;;5.50;2.30;;;;;;;13.46;57.50;101210.30;107396;1253;108622;-62
2023/09/12 00:16:03;;;;;;;11.60;2.40;;;;;;;13.48;57.51;101214.86;107441;1254;99269;-62
2023/09/12 00:18:31;;;;;;;11.20;2.60;;;;;;;13.50;57.53;101213.66;107428;1254;99369;-61
2023/09/12 00:21:00;;;;;;;9.00;2.40;;;;;;;13.50;57.52;101215.90;107401;1254;113744;-62
2023/09/12 00:23:29;;;;;;;9.50;2.20;;;;;;;13.49;57.54;101213.66;107406;1254;109884;-62
2023/09/12 00:25:58;;;;;;;9.60;2.80;;;;;;;13.50;57.53;101213.58;107427;1254;108155;-62
2023/09/12 00:28:26;;;;;;;6.20;3.00;;;;;;;13.52;57.71;101217.77;107396;1254;98796;-61
2023/09/12 00:30:56;;;;;;;8.10;2.80;;;;;;;13.53;57.95;101215.45;107425;1254;99073;-62
2023/09/12 00:33:24;;;;;;;5.50;2.70;;;;;;;13.55;57.84;101221.05;107442;1254;113226;-62
2023/09/12 00:35:53;;;;;;;13.40;2.80;;;;;;;13.56;57.88;101215.73;107443;1254;109936;-62
2023/09/12 00:38:21;;;;;;;7.70;2.70;;;;;;;13.58;57.64;101216.46;107425;1254;107911;-62
2023/09/12 00:40:49;;;;;;;9.10;3.30;;;;;;;13.59;57.56;101217.45;107372;1254;99152;-62
2023/09/12 00:43:18;;;;;;;11.00;2.70;;;;;;;13.58;57.66;101221.45;107412;1253;99115;-62
2023/09/12 00:45:46;;;;;;;7.00;3.10;;;;;;;13.59;57.69;101221.08;107401;1254;112169;-62
2023/09/12 00:48:17;;;;;;;10.70;3.00;;;;;;;13.58;57.61;101218.20;107452;1254;109807;-61
2023/09/12 00:50:47;;;;;;;7.30;3.40;;;;;;;13.57;57.38;101217.98;107386;1257;107507;-62
2023/09/12 00:53:16;;;;;;;5.80;3.20;;;;;;;13.54;57.36;101219.35;107401;1254;99098;-61
2023/09/12 00:55:49;;;;;;;8.50;4.00;;;;;;;13.50;57.30;101218.07;107446;1253;99073;-62
2023/09/12 00:58:18;;;;;;;;;;;;;;;13.48;57.21;101222.45;107437;1257;112576;-61
2023/09/12 01:00:47;;;;;;;5.50;2.90;;;;;;;13.43;57.19;101224.28;107395;1254;109391;-61
2023/09/12 01:03:16;;;;;;;11.70;4.10;;;;;;;13.36;57.15;101220.83;107424;1254;107851;-62
2023/09/12 01:05:46;;;;;;;13.60;4.30;;;;;;;13.29;57.08;101216.19;107298;1254;99198;-62
2023/09/12 01:08:14;;;;;;;16.10;5.50;;;;;;;13.25;57.15;101218.98;107427;1254;99182;-62
2023/09/12 01:10:45;;;;;;;13.30;5.60;;;;;;;13.21;57.05;101221.88;107398;1253;112668;-62
2023/09/12 01:13:14;;;;;;;13.60;5.10;;;;;;;13.16;57.27;101221.79;107452;1254;110142;-62
2023/09/12 01:15:43;;;;;;;17.50;6.00;;;;;;;13.12;57.46;101223.02;107425;1254;107147;-61
2023/09/12 01:18:12;;;;;;;15.20;5.90;;;;;;;13.09;57.35;101222.55;107400;1254;99281;-62
2023/09/12 01:21:12;;;;;;;11.40;5.90;;;;;;;13.06;57.19;101224.96;107318;1260;99739;-62
2023/09/12 01:23:47;;;;;;;12.80;6.20;;;;;;;13.02;57.42;101222.30;107130;1254;112690;-61
2023/09/12 01:26:47;;;;;;;22.10;7.10;;;;;;;12.98;57.62;101219.23;107422;1254;108630;-62
2023/09/12 01:29:17;;;;;;;18.90;6.30;;;;;;;12.94;57.48;101225.00;107440;1254;107496;-62
2023/09/12 01:31:47;;;;;;;27.70;7.50;;;;;;;12.91;57.67;101221.38;107389;1254;99068;-61
2023/09/12 01:34:16;;;;;;;18.80;8.80;;;;;;;12.84;57.77;101214.05;107389;1258;100374;-62
2023/09/12 01:36:44;;;;;;;29.60;9.00;;;;;;;12.81;57.76;101217.55;107391;1254;113593;-62
2023/09/12 01:39:13;;;;;;;22.30;10.10;;;;;;;12.77;58.10;101217.16;107371;1254;109677;-62
2023/09/12 01:41:46;;;;;;;28.60;10.20;;;;;;;12.73;58.03;101218.98;107443;1254;108072;-62
2023/09/12 01:44:15;;;;;;;25.30;10.70;;;;;;;12.68;58.12;101221.23;107346;1257;99180;-62
2023/09/12 01:46:44;;;;;;;15.80;9.70;;;;;;;12.65;58.02;101218.75;107418;1254;99181;-62
2023/09/12 01:49:14;;;;;;;21.60;10.40;;;;;;;12.65;58.09;101221.01;107318;1254;114224;-62
2023/09/12 01:51:43;;;;;;;21.50;10.10;;;;;;;12.60;58.19;101223.09;107388;1254;110094;-62
2023/09/12 01:54:12;;;;;;;23.30;11.10;;;;;;;12.57;58.38;101224.77;107354;1254;107650;-63
2023/09/12 01:56:41;;;;;;;30.90;10.50;;;;;;;12.56;58.68;101230.40;107353;1257;99204;-61
2023/09/12 01:59:11;;;;;;;31.90;11.20;;;;;;;12.56;58.74;101228.27;107319;1254;99328;-62
2023/09/12 02:01:39;;;;;;;26.40;11.50;;;;;;;12.54;59.24;101233.80;107340;1254;111607;-62
2023/09/12 02:04:08;;;;;;;28.60;12.50;;;;;;;12.53;59.23;101238.76;107300;1260;109097;-62
2023/09/12 02:06:37;;;;;;;41.60;12.90;;;;;;;12.53;59.16;101236.83;107355;1254;107802;-62
2023/09/12 02:09:05;;;;;;;26.20;11.20;;;;;;;12.52;59.16;101236.30;107384;1254;99267;-65
2023/09/12 02:11:33;;;;;;;33.90;12.90;;;;;;;12.51;59.20;101238.92;107302;1254;99173;-61
2023/09/12 02:14:02;;;;;;;35.30;12.90;;;;;;;12.52;59.38;101237.39;107379;1254;113608;-62
2023/09/12 02:16:32;;;;;;;34.80;13.40;;;;;;;12.52;59.37;101235.94;107381;1254;109759;-61
2023/09/12 02:19:00;;;;;;;32.20;13.40;;;;;;;12.53;59.38;101233.70;107321;1254;107049;-62
2023/09/12 02:21:28;;;;;;;33.60;13.40;;;;;;;12.56;59.50;101236.77;107370;1254;99181;-62
2023/09/12 02:23:57;;;;;;;40.10;15.00;;;;;;;12.57;59.75;101233.59;107303;1260;100003;-61
2023/09/12 02:26:25;;;;;;;38.00;15.50;;;;;;;12.55;59.94;101234.61;107376;1254;112480;-62
2023/09/12 02:28:53;;;;;;;46.70;15.50;;;;;;;12.54;59.87;101234.02;107409;1254;109617;-62
2023/09/12 02:31:21;;;;;;;46.80;17.10;;;;;;;12.56;59.79;101233.84;107369;1254;107210;-62
2023/09/12 02:33:49;;;;;;;38.70;16.00;;;;;;;12.57;59.78;101233.05;107399;1253;99253;-62
2023/09/12 02:36:18;;;;;;;46.30;17.70;;;;;;;12.57;59.65;101231.80;107365;1256;99279;-62
2023/09/12 02:38:47;;;;;;;39.20;15.90;;;;;;;12.56;59.83;101234.35;107458;1254;113661;-62
2023/09/12 02:41:15;;;;;;;65.20;19.40;;;;;;;12.55;59.68;101230.52;107315;1255;109757;-62
2023/09/12 02:43:44;;;;;;;46.00;18.80;;;;;;;12.54;59.73;101229.72;107293;1254;108652;-63
2023/09/12 02:46:12;;;;;;;46.90;19.60;;;;;;;12.51;59.62;101228.29;107294;1254;99336;-63
2023/09/12 02:48:41;;;;;;;44.50;19.70;;;;;;;12.50;59.78;101230.92;107319;1254;99794;-62
2023/09/12 02:51:09;;;;;;;50.30;20.60;;;;;;;12.51;60.00;101231.79;107420;1257;113331;-63
2023/09/12 02:53:38;;;;;;;54.70;22.10;;;;;;;12.50;59.97;101232.22;107351;1254;109912;-61
2023/09/12 02:56:06;;;;;;;58.20;22.20;;;;;;;12.48;60.04;101234.17;107299;1254;108429;-61
2023/09/12 02:58:34;;;;;;;56.20;22.10;;;;;;;12.47;59.88;101234.64;107282;1254;99195;-62
2023/09/12 03:01:06;;;;;;;65.30;22.10;;;;;;;12.44;60.11;101236.14;107435;1254;99087;-61
2023/09/12 03:03:34;;;;;;;63.10;24.50;;;;;;;12.41;59.96;101241.98;107369;1254;115325;-61
2023/09/12 03:06:03;;;;;;;76.60;25.00;;;;;;;12.37;59.74;101237.70;107384;1254;109231;-62
2023/09/12 03:08:32;;;;;;;65.20;23.90;;;;;;;12.33;59.84;101237.88;107278;1257;107110;-62
2023/09/12 03:11:02;;;;;;;65.90;24.30;;;;;;;12.29;59.82;101239.50;107292;1254;99195;-62
2023/09/12 03:13:31;;;;;;;66.90;25.20;;;;;;;12.26;59.98;101242.66;107434;1254;99749;-63
2023/09/12 03:16:00;;;;;;;68.20;24.40;;;;;;;12.21;59.93;101240.49;107473;1254;113297;-62
2023/09/12 03:18:28;;;;;;;60.00;22.80;;;;;;;12.17;59.84;101246.20;107449;1254;109420;-63
2023/09/12 03:20:57;;;;;;;65.90;23.60;;;;;;;12.15;60.07;101246.23;107407;1254;106591;-63
2023/09/12 03:23:25;;;;;;;65.60;25.50;;;;;;;12.14;60.02;101252.10;107379;1254;99112;-62
2023/09/12 03:25:53;;;;;;;67.00;27.30;;;;;;;12.12;60.22;101254.84;107294;1254;99077;-62
2023/09/12 03:28:22;;;;;;;77.70;27.70;;;;;;;12.08;60.28;101255.72;107349;1254;112656;-62
2023/09/12 03:30:50;;;;;;;54.20;25.50;;;;;;;12.05;60.33;101255.42;107398;1254;109345;-62
2023/09/12 03:33:19;;;;;;;65.40;24.40;;;;;;;12.01;60.54;101251.40;107315;1254;108379;-62
2023/09/12 03:35:47;;;;;;;55.60;24.50;;;;;;;11.98;60.44;101250.94;107366;1254;99203;-62
2023/09/12 03:38:16;;;;;;;59.30;25.10;;;;;;;11.95;60.72;101255.48;107273;1257;99231;-62
2023/09/12 03:40:44;;;;;;;71.40;26.20;;;;;;;11.93;60.94;101258.16;107392;1254;112836;-62
2023/09/12 03:43:12;;;;;;;53.20;22.80;;;;;;;11.92;61.28;101260.29;107313;1254;108556;-62
2023/09/12 03:45:41;;;;;;;67.30;24.80;;;;;;;11.91;61.26;101255.88;107393;1254;108255;-61
2023/09/12 03:48:10;;;;;;;59.70;24.50;;;;;;;11.91;61.38;101260.68;107378;1254;99210;-61
2023/09/12 03:50:38;;;;;;;62.70;24.70;;;;;;;11.92;61.38;101259.20;107390;1254;99736;-62
2023/09/12 03:53:07;;;;;;;58.80;23.40;;;;;;;11.93;61.46;101263.21;107449;1254;112227;-61
2023/09/12 03:55:37;;;;;;;61.90;25.90;;;;;;;11.96;61.69;101265.86;107198;1256;108152;-62
2023/09/12 03:58:06;;;;;;;60.50;24.10;;;;;;;11.98;61.80;101263.36;107344;1258;108447;-62
2023/09/12 04:00:35;;;;;;;78.40;25.20;;;;;;;11.98;61.98;101263.36;107395;1254;99224;-61
2023/09/12 04:03:04;;;;;;;63.60;24.60;;;;;;;11.99;62.26;101265.42;107454;1253;99835;-62
2023/09/12 04:05:32;;;;;;;61.00;23.30;;;;;;;12.02;62.47;101261.77;107294;1254;113569;-62
2023/09/12 04:08:00;;;;;;;61.30;24.00;;;;;;;12.05;62.67;101264.53;107269;1254;109587;-61
2023/09/12 04:10:29;;;;;;;72.70;24.00;;;;;;;12.08;62.62;101264.83;107381;1254;109402;-62
2023/09/12 04:12:57;;;;;;;70.60;22.90;;;;;;;12.12;62.63;101265.54;107390;1254;99256;-62
2023/09/12 04:15:25;;;;;;;61.70;22.60;;;;;;;12.17;62.65;101264.24;107374;1254;99793;-62
2023/09/12 04:17:54;;;;;;;50.10;20.50;;;;;;;12.22;62.76;101265.98;107371;1257;112588;-62
2023/09/12 04:20:22;;;;;;;56.30;21.40;;;;;;;12.27;62.75;101268.23;107398;1254;108642;-63
2023/09/12 04:22:51;;;;;;;65.60;22.00;;;;;;;12.32;62.91;101268.13;107318;1254;107815;-62
2023/09/12 04:25:19;;;;;;;63.00;23.20;;;;;;;12.37;63.29;101268.44;107373;1254;99257;-62
2023/09/12 04:27:48;;;;;;;57.50;20.10;;;;;;;12.39;63.13;101269.50;107310;1254;99220;-62
2023/09/12 04:30:17;;;;;;;52.40;19.60;;;;;;;12.44;63.23;101268.20;107297;1257;112318;-62
2023/09/12 04:32:46;;;;;;;46.40;18.80;;;;;;;12.50;63.21;101269.94;107360;1254;108910;-61
2023/09/12 04:35:14;;;;;;;55.80;19.70;;;;;;;12.56;63.38;101272.31;107131;1257;107787;-62
2023/09/12 04:37:42;;;;;;;51.40;19.10;;;;;;;12.63;63.31;101269.69;107170;1256;99212;-62
2023/09/12 04:40:11;;;;;;;54.80;20.30;;;;;;;12.70;63.30;101273.77;107372;1257;99188;-63
2023/09/12 04:42:40;;;;;;;58.90;20.80;;;;;;;12.77;63.36;101272.86;107384;1254;113057;-62
2023/09/12 04:45:09;;;;;;;63.90;19.00;;;;;;;12.85;63.39;101274.08;107294;1257;109965;-62
2023/09/12 04:47:38;;;;;;;50.10;17.40;;;;;;;12.92;63.23;101275.22;107386;1254;108776;-63
2023/09/12 04:50:07;;;;;;;49.20;17.00;;;;;;;12.99;63.27;101275.30;107386;1254;99189;-62
2023/09/12 04:52:35;;;;;;;52.40;15.30;;;;;;;13.08;63.14;101274.73;107363;1254;99147;-62
2023/09/12 04:55:04;;;;;;;51.40;16.60;;;;;;;13.15;63.14;101274.98;107471;1254;112624;-63
2023/09/12 04:57:33;;;;;;;40.00;17.40;;;;;;;13.22;63.07;101274.72;107427;1257;109937;-63
2023/09/12 05:00:01;;;;;;;53.80;16.80;;;;;;;13.29;63.03;101278.70;107400;1254;107847;-62
2023/09/12 05:02:30;;;;;;;48.60;14.90;;;;;;;13.38;63.14;101280.45;107372;1254;99072;-62
2023/09/12 05:04:59;;;;;;;53.70;13.80;;;;;;;13.48;63.13;101281.58;107235;1256;99068;-62
2023/09/12 05:07:27;;;;;;;56.00;12.30;;;;;;;13.57;62.90;101279.58;107357;1257;112888;-62
2023/09/12 05:09:55;;;;;;;42.80;12.10;;;;;;;13.66;62.73;101283.81;107149;1260;109717;-62
2023/09/12 05:12:24;;;;;;;44.30;11.20;;;;;;;13.77;62.72;101287.29;107173;1256;108357;-62
2023/09/12 05:14:52;;;;;;;35.60;10.00;;;;;;;13.85;62.50;101288.90;107142;1256;99894;-63
2023/09/12 05:17:20;;;;;;;24.10;6.90;;;;;;;13.93;62.46;101287.78;107380;1257;99087;-62
2023/09/12 05:19:49;;;;;;;27.70;7.80;;;;;;;13.99;62.26;101286.72;107245;1256;113674;-62
2023/09/12 05:22:17;;;;;;;22.80;6.80;;;;;;;14.06;62.27;101288.73;107210;1257;109306;-62
2023/09/12 05:24:46;;;;;;;19.50;6.20;;;;;;;14.12;62.28;101287.61;107249;1256;108352;-62
2023/09/12 05:27:14;;;;;;;32.80;6.50;;;;;;;14.19;62.21;101285.92;107162;1256;99232;-62
2023/09/12 05:29:43;;;;;;;39.00;6.40;;;;;;;14.24;62.11;101287.21;107423;1257;99169;-62
2023/09/12 05:32:11;;;;;;;17.20;5.20;;;;;;;14.30;61.99;101290.78;107335;1257;113512;-62
2023/09/12 05:34:40;;;;;;;19.60;5.10;;;;;;;14.36;62.05;101287.85;107371;1256;109363;-64
2023/09/12 05:37:08;;;;;;;18.80;4.90;;;;;;;14.42;61.96;101291.84;107215;1255;107849;-62
2023/09/12 05:39:36;;;;;;;23.20;4.70;;;;;;;14.46;62.44;101286.90;107199;1256;99189;-62
2023/09/12 05:42:05;;;;;;;26.00;4.90;;;;;;;14.51;62.35;101284.94;107053;1262;99755;-63
2023/09/12 05:44:34;;;;;;;17.50;5.30;;;;;;;14.57;62.15;101286.23;107325;1257;112945;-62
2023/09/12 05:47:03;;;;;;;14.50;4.70;;;;;;;14.63;62.19;101287.79;107380;1257;109742;-62
2023/09/12 05:49:34;;;;;;;9.70;3.90;;;;;;;14.69;62.14;101284.85;107281;1257;106968;-62
2023/09/12 05:52:02;;;;;;;13.20;4.30;;;;;;;14.76;62.13;101282.79;107364;1258;99195;-62
2023/09/12 05:54:31;;;;;;;9.00;4.40;;;;;;;14.81;62.33;101284.48;107244;1257;99178;-62
2023/09/12 05:56:59;;;;;;;15.70;4.40;;;;;;;14.88;63.01;101285.75;107219;1257;114214;-62
2023/09/12 05:59:28;;;;;;;16.90;5.10;;;;;;;14.94;62.84;101286.77;107306;1257;109890;-63
2023/09/12 06:01:56;;;;;;;19.00;4.40;;;;;;;15.03;63.10;101290.08;107343;1256;107646;-62
2023/09/12 06:04:24;;;;;;;15.70;4.00;;;;;;;15.11;62.90;101292.67;107190;1256;99196;-62
2023/09/12 06:06:53;;;;;;;21.10;5.60;;;;;;;15.20;62.78;101297.20;107361;1254;99077;-62
2023/09/12 06:09:22;;;;;;;28.70;5.10;;;;;;;15.28;62.80;101299.45;107226;1258;113132;-62
2023/09/12 06:11:50;;;;;;;17.20;4.00;;;;;;;15.37;62.74;101306.69;107344;1257;110448;-62
2023/09/12 06:14:19;;;;;;;15.10;4.50;;;;;;;15.48;62.68;101302.23;107384;1257;106495;-63
2023/09/12 06:16:47;;;;;;;16.70;4.70;;;;;;;15.57;62.68;101300.96;107363;1257;99294;-63
2023/09/12 06:19:16;;;;;;;10.30;4.40;;;;;;;15.65;62.51;101300.52;107364;1256;99194;-63
2023/09/12 06:21:44;;;;;;;10.20;4.10;;;;;;;15.74;62.81;101303.71;107416;1256;113549;-62
2023/09/12 06:24:12;;;;;;;25.30;5.00;;;;;;;15.85;62.75;101301.52;107422;1254;109855;-63
2023/09/12 06:26:41;;;;;;;22.00;3.60;;;;;;;15.95;62.70;101306.11;107401;1257;107047;-63
2023/09/12 06:29:09;;;;;;;14.00;4.10;;;;;;;16.06;62.47;101311.68;107364;1254;99199;-63
2023/09/12 06:31:37;;;;;;;25.70;4.00;;;;;;;16.17;62.39;101309.73;107370;1257;99816;-63
2023/09/12 06:34:06;;;;;;;13.80;4.10;;;;;;;16.25;62.24;101314.24;107356;1254;113500;-62
2023/09/12 06:36:34;;;;;;;16.30;3.60;;;;;;;16.35;62.18;101311.29;107355;1257;108641;-63
2023/09/12 06:39:05;;;;;;;22.70;4.30;;;;;;;16.46;61.97;101316.43;107367;1254;108289;-62
2023/09/12 06:41:34;;;;;;;11.90;3.70;;;;;;;16.56;61.95;101322.45;107403;1254;99198;-63
2023/09/12 06:44:05;;;;;;;23.00;4.70;;;;;;;16.67;61.84;101324.41;107400;1255;100933;-63
2023/09/12 06:46:37;;;;;;;10.10;4.20;;;;;;;16.78;61.61;101328.66;107375;1254;114025;-62
2023/09/12 06:49:06;;;;;;;20.10;4.00;;;;;;;16.89;61.77;101327.30;107372;1254;109490;-61
2023/09/12 06:51:35;;;;;;;14.60;3.70;;;;;;;16.98;61.49;101328.33;107385;1257;106664;-63
2023/09/12 06:54:06;;;;;;;19.70;3.80;;;;;;;17.07;61.31;101324.15;107344;1259;99061;-62
2023/09/12 06:56:37;;;;;;;12.20;4.40;;;;;;;17.17;61.21;101325.42;107365;1258;99258;-62
2023/09/12 06:59:06;;;;;;;10.40;4.20;;;;;;;17.29;61.19;101325.92;107358;1257;111883;-63
2023/09/12 07:01:35;;;;;;;12.00;4.70;;;;;;;17.45;61.08;101328.05;107395;1257;109792;-62
2023/09/12 07:04:04;;;;;;;10.20;4.50;;;;;;;17.58;60.71;101324.67;107345;1257;107129;-62
2023/09/12 07:06:33;;;;;;;15.20;3.70;;;;;;;17.72;60.50;101328.42;107370;1254;99207;-62
2023/09/12 07:09:03;;;;;;;14.50;4.00;;;;;;;17.82;60.29;101331.38;107372;1254;99723;-62
2023/09/12 07:11:31;;;;;;;12.60;4.60;;;;;;;17.94;60.19;101331.01;107386;1254;112154;-62
2023/09/12 07:14:00;;;;;;;10.70;4.20;;;;;;;18.07;59.89;101334.02;107364;1255;109764;-63
2023/09/12 07:16:28;;;;;;;21.00;4.50;;;;;;;18.19;59.68;101329.59;107344;1259;108129;-62
2023/09/12 07:18:56;;;;;;;10.00;3.80;;;;;;;18.32;59.62;101329.41;107351;1257;99093;-62
2023/09/12 07:21:26;;;;;;;14.10;4.10;;;;;;;18.45;59.46;101324.02;107399;1257;99272;-62
2023/09/12 07:23:54;;;;;;;11.90;3.90;;;;;;;18.59;59.12;101320.52;107395;1255;113478;-62
2023/09/12 07:26:23;;;;;;;10.00;4.00;;;;;;;18.71;58.67;101319.71;107342;1257;109298;-62
2023/09/12 07:28:55;;;;;;;15.60;4.20;;;;;;;18.81;58.47;101321.48;107366;1257;107637;-61
2023/09/12 07:31:23;;;;;;;24.70;3.70;;;;;;;18.91;58.19;101321.01;107335;1257;99186;-62
2023/09/12 07:33:52;;;;;;;15.90;3.80;;;;;;;19.05;58.08;101325.48;107372;1256;99247;-63
2023/09/12 07:36:20;;;;;;;14.20;4.30;;;;;;;19.18;57.89;101319.27;107331;1257;112741;-62
2023/09/12 07:38:49;;;;;;;15.80;3.50;;;;;;;19.33;57.78;101319.65;107348;1257;109846;-63
2023/09/12 07:41:19;;;;;;;13.20;3.50;;;;;;;19.50;57.52;101318.16;107362;1259;109195;-63
2023/09/12 07:43:47;;;;;;;13.80;4.10;;;;;;;19.70;57.12;101318.21;107312;1256;99196;-63
2023/09/12 07:46:16;;;;;;;20.60;3.90;;;;;;;19.87;56.87;101309.65;107415;1257;99179;-63
2023/09/12 07:48:44;;;;;;;21.80;3.50;;;;;;;20.03;56.25;101312.87;107355;1256;112811;-63
2023/09/12 07:51:17;;;;;;;14.50;3.80;;;;;;;20.16;55.71;101311.05;107351;1257;109820;-62
2023/09/12 07:53:46;;;;;;;22.30;4.00;;;;;;;20.31;55.77;101308.20;107377;1257;108663;-62
2023/09/12 07:56:14;;;;;;;13.50;3.70;;;;;;;20.47;55.53;101307.04;107331;1258;99240;-62
2023/09/12 07:58:43;;;;;;;13.00;3.70;;;;;;;20.64;54.88;101303.02;107381;1258;99074;-62
2023/09/12 08:01:11;;;;;;;18.40;3.80;;;;;;;20.81;54.41;101304.12;107366;1257;111851;-65
2023/09/12 08:03:43;;;;;;;10.50;2.90;;;;;;;20.96;53.92;101301.35;107345;1258;109385;-62
2023/09/12 08:06:11;;;;;;;7.50;2.80;;;;;;;21.13;52.31;101297.88;107416;1254;107809;-63
2023/09/12 08:08:40;;;;;;;4.10;2.50;;;;;;;21.30;49.17;101300.16;107393;1254;99849;-63
2023/09/12 08:11:12;;;;;;;8.80;1.70;;;;;;;21.47;47.29;101298.68;107397;1254;99772;-63
2023/09/12 08:13:40;;;;;;;12.80;2.50;;;;;;;21.62;46.58;101301.38;107348;1257;113087;-63
2023/09/12 08:16:10;;;;;;;5.30;2.10;;;;;;;21.79;45.99;101299.71;107389;1254;109696;-62
2023/09/12 08:18:38;;;;;;;6.50;2.70;;;;;;;21.95;44.85;101297.90;107408;1254;107882;-63
2023/09/12 08:21:07;;;;;;;7.30;2.40;;;;;;;22.08;45.13;101295.22;107396;1254;99183;-63
2023/09/12 08:23:36;;;;;;;8.60;2.50;;;;;;;22.22;44.96;101293.87;107354;1257;99179;-63
2023/09/12 08:26:04;;;;;;;7.20;2.90;;;;;;;22.38;45.00;101292.60;107387;1256;113206;-63
2023/09/12 08:28:32;;;;;;;13.50;3.20;;;;;;;22.55;44.74;101295.96;107244;1260;108916;-62
2023/09/12 08:31:01;;;;;;;6.80;3.20;;;;;;;22.74;43.60;101292.70;107370;1256;108367;-62
2023/09/12 08:33:29;;;;;;;14.90;2.60;;;;;;;22.89;43.77;101294.54;107371;1254;99263;-62
2023/09/12 08:35:58;;;;;;;7.50;2.70;;;;;;;23.06;42.60;101299.11;107397;1257;99185;-62
2023/09/12 08:38:26;;;;;;;10.70;2.30;;;;;;;23.19;42.97;101296.15;107274;1257;111399;-63
2023/09/12 08:40:54;;;;;;;6.00;2.30;;;;;;;23.38;43.13;101295.51;107365;1260;109045;-63
2023/09/12 08:43:23;;;;;;;7.60;2.60;;;;;;;23.61;43.22;101294.81;107306;1256;107777;-63
2023/09/12 08:45:52;;;;;;;7.20;2.00;;;;;;;23.86;42.25;101290.02;107262;1256;99239;-63
2023/09/12 08:48:23;;;;;;;10.30;2.90;;;;;;;24.07;41.26;101284.76;107404;1254;99074;-64
2023/09/12 08:50:53;;;;;;;18.20;3.50;;;;;;;24.29;40.76;101286.11;107410;1254;113603;-64
2023/09/12 08:53:22;;;;;;;8.80;3.10;;;;;;;24.53;40.19;101288.45;107388;1254;109086;-62
2023/09/12 08:55:52;;;;;;;11.40;2.80;;;;;;;24.77;40.05;101288.17;107384;1254;108892;-62
2023/09/12 08:58:22;;;;;;;7.10;2.30;;;;;;;25.03;39.23;101289.77;107371;1257;99165;-63
2023/09/12 09:00:51;;;;;;;12.00;2.80;;;;;;;25.28;38.22;101290.69;107382;1255;99162;-63
2023/09/12 09:03:22;;;;;;;12.80;2.10;;;;;;;25.52;37.93;101286.30;107429;1254;112536;-63
2023/09/12 09:05:54;;;;;;;8.90;2.40;;;;;;;25.78;37.18;101285.12;107419;1254;108572;-63
2023/09/12 09:08:23;;;;;;;10.90;2.70;;;;;;;26.06;36.20;101286.80;107395;1254;107844;-62
2023/09/12 09:10:59;;;;;;;11.70;2.10;;;;;;;26.31;36.02;101279.64;107253;1260;99191;-63
2023/09/12 09:13:27;;;;;;;13.40;2.40;;;;;;;26.61;34.76;101287.30;107410;1258;99735;-63
2023/09/12 09:16:16;;;;;;;15.70;2.60;;;;;;;26.85;34.07;101281.13;107351;1258;113201;-63
2023/09/12 09:18:54;;;;;;;7.20;2.00;;;;;;;27.25;33.91;101284.30;107443;1254;110017;-63
2023/09/12 09:21:30;;;;;;;8.00;2.10;;;;;;;27.70;32.94;101286.26;107400;1254;108820;-62
2023/09/12 09:24:04;;;;;;;13.20;2.30;;;;;;;28.22;32.37;101283.44;107382;1254;99189;-64
2023/09/12 09:26:41;;;;;;;3.70;1.80;;;;;;;28.87;32.12;101281.84;107373;1254;99694;-62
2023/09/12 09:29:13;;;;;;;14.80;2.50;;;;;;;29.55;31.28;101276.54;107404;1254;112790;-62
2023/09/12 09:31:42;;;;;;;12.80;2.20;;;;;;;30.16;30.12;101274.90;107243;1257;109254;-64
2023/09/12 09:34:15;;;;;;;7.50;2.40;;;;;;;30.67;29.36;101272.77;107373;1257;107911;-64
2023/09/12 09:36:49;;;;;;;5.30;2.20;;;;;;;31.24;28.50;101274.27;107376;1257;99190;-65
2023/09/12 09:39:23;;;;;;;22.70;2.10;;;;;;;31.75;27.77;101272.66;107384;1257;100919;-64
2023/09/12 09:41:56;;;;;;;11.50;2.30;;;;;;;32.17;26.87;101270.27;107378;1260;113361;-64
2023/09/12 09:44:28;;;;;;;3.80;1.90;;;;;;;32.58;26.41;101264.91;107391;1257;109282;-64
2023/09/12 09:47:03;;;;;;;8.60;2.40;;;;;;;32.94;25.94;101262.42;107418;1254;109033;-63
2023/09/12 09:49:34;;;;;;;6.80;2.00;;;;;;;33.25;25.25;101262.13;107228;1257;99218;-64
2023/09/12 09:52:06;;;;;;;6.60;1.50;;;;;;;33.58;25.08;101259.59;107259;1257;99726;-63
2023/09/12 09:54:34;;;;;;;6.40;1.60;;;;;;;33.85;24.03;101258.00;107278;1256;112437;-64
2023/09/12 09:57:04;;;;;;;8.00;1.80;;;;;;;34.09;23.40;101253.60;106969;1257;434164;-63
2023/09/12 09:59:32;;;;;;;12.50;1.90;;;;;;;34.37;23.34;101251.00;107383;1254;107746;-63
2023/09/12 10:02:03;;;;;;;12.00;1.90;;;;;;;34.67;23.35;101251.15;107239;1254;99415;-63
2023/09/12 10:04:32;;;;;;;6.60;1.80;;;;;;;35.01;22.69;101252.65;107421;1254;99051;-63
2023/09/12 10:07:16;;;;;;;8.40;2.00;;;;;;;35.27;22.90;101248.86;107408;1254;113531;-63
2023/09/12 10:09:44;;;;;;;11.50;2.20;;;;;;;35.61;21.67;101252.29;107375;1254;109120;-63
2023/09/12 10:12:13;;;;;;;12.90;2.10;;;;;;;35.78;21.15;101252.29;107403;1254;108249;-63
2023/09/12 10:14:43;;;;;;;9.40;1.90;;;;;;;35.90;21.52;101242.75;107346;1254;99116;-64
2023/09/12 10:17:16;;;;;;;6.10;1.80;;;;;;;36.31;20.68;101249.48;107401;1254;99070;-63
2023/09/12 10:19:59;;;;;;;4.00;1.80;;;;;;;36.55;20.76;101243.37;107407;1254;113177;-64
2023/09/12 10:22:34;;;;;;;11.60;2.00;;;;;;;36.81;20.91;101242.04;107426;1260;110158;-66
2023/09/12 10:25:03;;;;;;;5.00;1.60;;;;;;;37.11;20.02;101245.41;107396;1254;107652;-65
2023/09/12 10:27:34;;;;;;;9.30;1.50;;;;;;;36.67;19.88;101246.50;107395;1254;99198;-63
2023/09/12 10:30:04;;;;;;;6.10;1.60;;;;;;;36.68;20.13;101244.30;107395;1254;100332;-65
2023/09/12 10:32:33;;;;;;;6.40;1.70;;;;;;;36.67;20.05;101240.80;107344;1257;113720;-66
2023/09/12 10:35:03;;;;;;;3.80;1.90;;;;;;;36.81;19.94;101236.94;107340;1258;109384;-66
2023/09/12 10:37:35;;;;;;;5.70;1.80;;;;;;;37.16;19.79;101238.27;107303;1257;108603;-67
2023/09/12 10:40:08;;;;;;;5.80;1.40;;;;;;;37.46;19.39;101231.72;107341;1257;99264;-66
2023/09/12 10:42:36;;;;;;;6.20;1.50;;;;;;;37.92;19.29;101226.05;107341;1257;99887;-65
2023/09/12 10:45:08;;;;;;;4.80;1.50;;;;;;;38.28;18.76;101222.29;107301;1256;113382;-66
2023/09/12 10:47:37;;;;;;;18.10;2.10;;;;;;;38.72;19.10;101217.02;107346;1257;108511;-65
2023/09/12 10:50:07;;;;;;;15.00;2.00;;;;;;;39.17;18.72;101217.80;107377;1257;107295;-64
2023/09/12 10:52:39;;;;;;;11.00;1.90;;;;;;;39.54;17.78;101220.73;107334;1258;99396;-64
2023/09/12 10:55:18;;;;;;;7.20;1.90;;;;;;;39.52;17.11;101218.20;107372;1259;99167;-65
2023/09/12 10:58:03;;;;;;;11.60;2.00;;;;;;;39.64;17.49;101215.17;107432;1258;113584;-66
2023/09/12 11:00:32;;;;;;;6.00;1.40;;;;;;;39.77;17.85;101215.23;107349;1256;109362;-64
2023/09/12 11:03:27;;;;;;;13.70;1.70;;;;;;;39.91;17.80;101209.95;107413;1254;108833;-66
2023/09/12 11:05:56;;;;;;;5.90;1.60;;;;;;;40.12;17.56;101208.77;107318;1254;99182;-64
2023/09/12 11:08:24;;;;;;;10.20;1.70;;;;;;;40.19;17.12;101216.11;107425;1254;99733;-64
2023/09/12 11:11:20;;;;;;;5.30;1.60;;;;;;;40.13;16.81;101207.49;107407;1258;113274;-65
2023/09/12 11:14:05;;;;;;;8.40;1.70;;;;;;;40.05;17.12;101198.63;107391;1254;110383;-64
2023/09/12 11:16:35;;;;;;;7.40;1.50;;;;;;;40.39;17.16;101195.30;107427;1254;107193;-65